KPCD/PCD METAR and TAF weather

Enter ICAO airport designator
Station Type Date Time Source
KPCD METAR 2020/09/28 08:55 UTC NOAA

KPCD 280855Z AUTO 28005KT 10SM -RA BKN010 BKN037 OVC060 13/13 A2984 RMK AO2 P0018 60034 T01300125


Station Type Date Time Source
KPCD Decoded METAR 2020/09/28 08:55 UTC NOAA

Station name not available
Sep 28, 2020 - 04:55 AM EDT / 2020.09.28 0855 UTC
Wind: from the W (280 degrees) at 6 MPH (5 KT):0
Visibility: 10 mile(s):0
Sky conditions: overcast
Weather: light rain
Precipitation last hour: 0.18 inches
Temperature: 55.4 F (13.0 C)
Dew Point: 54.5 F (12.5 C)
Relative Humidity: 96%
Pressure (altimeter): 29.84 in. Hg (1010 hPa)
ob: KPCD 280855Z AUTO 28005KT 10SM -RA BKN010 BKN037 OVC060 13/13 A2984 RMK AO2 P0018 60034 T01300125
cycle: 9

Station Type Date Time Source
KPCD TAF UTC NOAA

Error!

Example: see airport list